Portada
METAR-TAF:

METAR-TAF

Aeroports :

Palenque, Mèxic

latitud: 17-32-06N, longitud: 92-00-54W, altitud: 60 m

Observació

L'informe es va fer fa 6 hores i 50 minuts, a les 00:46 UTC
Vent calma
Temperatura 35°C
Humitat 67%
Pressió 1008 hPa
Visibilitat: 4.8 km
Cel clar
calitja

METAR: MMPQ 290046Z 00000KT 3SM HZ SKC 35/28 A2978 RMK MSGTX MMMX

Hora: 02:36 (07:36 UTC)

Pronòstic

L'informe es va fer fa 2 hores i 47 minuts, a les 04:49 UTC
Pronòstic vàlid del 29 a les 06 UTC al 30 a les 06 UTC
Vent 5 kt del Est
Visibilitat: 4.8 km
Cel clar
calitja
A partir de les 29 a les 1800 UTC
Vent 10 kt del Est/Nord-Est
Visibilitat: 6.4 km
Cel clar
calitja
A partir de les 30 a les 0200 UTC
Vent kt del Nord
Visibilitat: 8.0 km
Cel clar
calitja,

TAF: MMPQ 290449Z 2906/3006 10005KT 3SM HZ SKC FM291800 06010KT 4SM HZ SKC FM300200 00000KT 5SM HZ SKC

Observacions i pronòstics meteorològics de més de 4000 aeroports (METAR i TAF).

Les estacions disponibles són els punts grocs i vermells al mapa.

Posi el ratolí al punt desitjat per veure el nom de l'estació.

Feu clic per veure les observacions i els pronòstics meteorològics.

Per canviar el mapa: feu clic els botons verds amb una creu de color negre per apropar; al botó verd amb un guió per allunyar la imatge; o en les fletxes verdes per a mapes adjacents.


METAR-TAF: